createdAt,value
2022-10-01T00:02:07.289Z,99501.81
2022-10-01T00:04:36.459Z,99505.09
2022-10-01T00:07:05.078Z,99500.56
2022-10-01T00:09:32.535Z,99511.69
2022-10-01T00:12:00.227Z,99510.16
2022-10-01T00:14:27.795Z,99506.09
2022-10-01T00:16:54.507Z,99501.28
2022-10-01T00:19:22.792Z,99506.09
2022-10-01T00:21:49.594Z,99511.00
2022-10-01T00:24:16.183Z,99509.16
2022-10-01T00:26:45.520Z,99500.44
2022-10-01T00:29:14.858Z,99503.03
2022-10-01T00:31:42.011Z,99495.69
2022-10-01T00:34:10.218Z,99497.91
2022-10-01T00:36:36.835Z,99497.28
2022-10-01T00:39:05.997Z,99500.50
2022-10-01T00:41:34.292Z,99501.66
2022-10-01T00:44:20.829Z,99501.94
2022-10-01T00:46:50.984Z,99503.94
2022-10-01T00:49:24.238Z,99493.91
2022-10-01T00:51:54.177Z,99498.28
2022-10-01T00:54:31.445Z,99496.34
2022-10-01T00:57:00.315Z,99497.19
2022-10-01T00:59:27.951Z,99488.78
2022-10-01T01:01:55.175Z,99490.97
2022-10-01T01:04:22.193Z,99498.22
2022-10-01T01:06:57.800Z,99491.34
2022-10-01T01:09:30.604Z,99490.34
2022-10-01T01:12:07.005Z,99489.25
2022-10-01T01:15:04.965Z,99490.53
2022-10-01T01:18:03.586Z,99485.66
2022-10-01T01:20:50.310Z,99479.81
2022-10-01T01:23:17.496Z,99482.41
2022-10-01T01:25:50.249Z,99472.16
2022-10-01T01:28:32.147Z,99463.00
2022-10-01T01:31:02.748Z,99461.03
2022-10-01T01:33:32.961Z,99460.34
2022-10-01T01:36:11.434Z,99458.94
2022-10-01T01:38:49.488Z,99452.91
2022-10-01T01:41:18.353Z,99450.91
2022-10-01T01:43:46.593Z,99449.53
2022-10-01T01:46:18.986Z,99442.94
2022-10-01T01:48:50.113Z,99446.03
2022-10-01T01:51:24.274Z,99440.69
2022-10-01T01:53:52.092Z,99437.75
2022-10-01T01:56:46.243Z,99433.56
2022-10-01T01:59:13.462Z,99441.75
2022-10-01T02:01:42.478Z,99448.66
2022-10-01T02:04:19.589Z,99441.31
2022-10-01T02:07:19.188Z,99443.59
2022-10-01T02:10:07.123Z,99439.94
2022-10-01T02:13:01.611Z,99436.59
2022-10-01T02:15:36.186Z,99431.38
2022-10-01T02:18:09.421Z,99433.66
2022-10-01T02:20:40.069Z,99430.97
2022-10-01T02:23:12.239Z,99424.09
2022-10-01T02:25:49.381Z,99432.25
2022-10-01T02:28:19.843Z,99428.00
2022-10-01T02:30:47.488Z,99434.50
2022-10-01T02:33:22.587Z,99424.94
2022-10-01T02:35:50.861Z,99422.69
2022-10-01T02:38:18.354Z,99429.16
2022-10-01T02:40:46.277Z,99424.94
2022-10-01T02:43:47.639Z,99418.31
2022-10-01T02:46:20.487Z,99414.50
2022-10-01T02:48:50.010Z,99412.84
2022-10-01T02:51:32.414Z,99418.75
2022-10-01T02:54:08.750Z,99413.13
2022-10-01T02:56:56.408Z,99407.66
2022-10-01T02:59:23.274Z,99406.09
2022-10-01T03:01:50.047Z,99403.81
2022-10-01T03:04:16.659Z,99401.72
2022-10-01T03:06:43.299Z,99400.72
2022-10-01T03:09:09.794Z,99403.41
2022-10-01T03:11:37.936Z,99406.63
2022-10-01T03:14:04.600Z,99399.59
2022-10-01T03:16:34.397Z,99396.50
2022-10-01T03:19:01.084Z,99388.59
2022-10-01T03:21:27.554Z,99395.22
2022-10-01T03:23:54.208Z,99391.28
2022-10-01T03:26:22.421Z,99392.28
2022-10-01T03:28:50.005Z,99392.44
2022-10-01T03:31:16.582Z,99395.53
2022-10-01T03:33:43.245Z,99400.59
2022-10-01T03:36:09.861Z,99401.88
2022-10-01T03:38:36.547Z,99396.56
2022-10-01T03:41:03.020Z,99397.06
2022-10-01T03:43:31.757Z,99401.44
2022-10-01T03:45:59.650Z,99395.09
2022-10-01T03:48:31.457Z,99394.41
2022-10-01T03:50:59.663Z,99399.19
2022-10-01T03:53:27.597Z,99394.53
2022-10-01T03:55:55.036Z,99395.38
2022-10-01T03:58:26.014Z,99399.31
2022-10-01T04:00:54.350Z,99386.09
2022-10-01T04:03:23.570Z,99396.78
2022-10-01T04:05:50.145Z,99385.38
2022-10-01T04:08:17.955Z,99380.03
2022-10-01T04:10:48.270Z,99372.72
2022-10-01T04:13:16.587Z,99369.91
2022-10-01T04:15:43.958Z,99367.38
2022-10-01T04:18:17.356Z,99355.69
2022-10-01T04:20:44.108Z,99356.94
2022-10-01T04:23:12.961Z,99359.34
2022-10-01T04:25:39.831Z,99344.63
2022-10-01T04:28:08.576Z,99351.38
2022-10-01T04:30:37.611Z,99354.47
2022-10-01T04:33:06.289Z,99354.75
2022-10-01T04:35:33.712Z,99357.56
2022-10-01T04:38:04.705Z,99354.09
2022-10-01T04:40:35.503Z,99359.19
2022-10-01T04:43:02.818Z,99359.81
2022-10-01T04:45:29.437Z,99352.28
2022-10-01T04:47:56.467Z,99363.00
2022-10-01T04:50:24.684Z,99350.81
2022-10-01T04:52:55.764Z,99362.75
2022-10-01T04:55:24.470Z,99348.81
2022-10-01T04:57:53.234Z,99351.16
2022-10-01T05:00:22.397Z,99350.31
2022-10-01T05:02:50.332Z,99342.97
2022-10-01T05:05:18.876Z,99343.69
2022-10-01T05:07:45.697Z,99343.25
2022-10-01T05:10:22.810Z,99345.53
2022-10-01T05:12:51.648Z,99334.53
2022-10-01T05:15:19.180Z,99339.84
2022-10-01T05:17:46.665Z,99339.25
2022-10-01T05:20:24.284Z,99333.72
2022-10-01T05:22:51.151Z,99332.81
2022-10-01T05:25:20.308Z,99336.47
2022-10-01T05:27:47.187Z,99343.63
2022-10-01T05:30:24.116Z,99337.78
2022-10-01T05:32:56.452Z,99337.25
2022-10-01T05:35:23.147Z,99330.38
2022-10-01T05:38:04.406Z,99323.56
2022-10-01T05:40:31.288Z,99331.75
2022-10-01T05:43:00.453Z,99325.69
2022-10-01T05:45:28.170Z,99330.50
2022-10-01T05:48:05.304Z,99317.84
2022-10-01T05:50:36.770Z,99324.88
2022-10-01T05:53:03.343Z,99330.28
2022-10-01T05:55:34.909Z,99330.63
2022-10-01T05:58:13.168Z,99325.88
2022-10-01T06:00:42.018Z,99327.25
2022-10-01T06:03:12.734Z,99324.09
2022-10-01T06:05:40.969Z,99334.00
2022-10-01T06:08:09.743Z,99327.66
2022-10-01T06:10:37.126Z,99323.69
2022-10-01T06:13:07.626Z,99321.72
2022-10-01T06:15:38.373Z,99320.94
2022-10-01T06:18:08.995Z,99312.19
2022-10-01T06:20:36.179Z,99307.41
2022-10-01T06:23:05.878Z,99310.59
2022-10-01T06:25:33.074Z,99312.47
2022-10-01T06:27:59.984Z,99305.91
2022-10-01T06:30:31.937Z,99300.78
2022-10-01T06:33:19.814Z,99298.50
2022-10-01T06:35:51.469Z,99301.19
2022-10-01T06:38:22.435Z,99291.81
2022-10-01T06:40:56.978Z,99308.47
2022-10-01T06:43:24.888Z,99311.34
2022-10-01T06:45:53.040Z,99307.59
2022-10-01T06:48:20.588Z,99310.16
2022-10-01T06:50:48.744Z,99300.25
2022-10-01T06:53:17.337Z,99293.22
2022-10-01T06:55:44.859Z,99290.84
2022-10-01T06:58:19.229Z,99288.38
2022-10-01T07:00:47.103Z,99283.31
2022-10-01T07:03:22.934Z,99277.59
2022-10-01T07:05:50.094Z,99285.28
2022-10-01T07:08:17.823Z,99283.09
2022-10-01T07:10:44.617Z,99283.56
2022-10-01T07:13:16.624Z,99289.94
2022-10-01T07:15:45.116Z,99282.09
2022-10-01T07:18:11.789Z,99274.63
2022-10-01T07:20:40.833Z,99270.84
2022-10-01T07:23:11.690Z,99266.09
2022-10-01T07:25:39.603Z,99280.22
2022-10-01T07:28:08.027Z,99273.69
2022-10-01T07:30:34.815Z,99264.66
2022-10-01T07:33:01.349Z,99270.28
2022-10-01T07:35:32.112Z,99260.22
2022-10-01T07:38:07.589Z,99263.41
2022-10-01T07:40:34.521Z,99273.22
2022-10-01T07:43:02.159Z,99259.94
2022-10-01T07:45:34.245Z,99260.78
2022-10-01T07:48:04.835Z,99251.34
2022-10-01T07:50:31.622Z,99254.00
2022-10-01T07:53:02.895Z,99254.00
2022-10-01T07:55:31.060Z,99256.56
2022-10-01T07:58:05.679Z,99249.72
2022-10-01T08:00:34.019Z,99257.41
2022-10-01T08:03:00.781Z,99256.13
2022-10-01T08:05:30.981Z,99252.00
2022-10-01T08:07:58.968Z,99248.66
2022-10-01T08:10:25.759Z,99246.78
2022-10-01T08:13:25.294Z,99241.19
2022-10-01T08:15:56.052Z,99243.44
2022-10-01T08:18:24.914Z,99240.81
2022-10-01T08:20:52.763Z,99230.13
2022-10-01T08:23:19.689Z,99235.59
2022-10-01T08:25:49.320Z,99233.78
2022-10-01T08:28:17.264Z,99232.44
2022-10-01T08:30:47.145Z,99222.56
2022-10-01T08:33:14.586Z,99222.09
2022-10-01T08:35:41.719Z,99227.88
2022-10-01T08:38:08.817Z,99217.44
2022-10-01T08:40:46.577Z,99215.13
2022-10-01T08:43:40.232Z,99222.72
2022-10-01T08:46:15.045Z,99214.00
2022-10-01T08:48:56.836Z,99209.34
2022-10-01T08:51:37.845Z,99202.78
2022-10-01T08:54:09.335Z,99203.94
2022-10-01T08:56:39.669Z,99203.00
2022-10-01T08:59:31.882Z,99186.94
2022-10-01T09:01:59.251Z,99192.63
2022-10-01T09:04:27.023Z,99187.75
2022-10-01T09:07:10.380Z,99187.09
2022-10-01T09:09:45.892Z,99180.81
2022-10-01T09:12:16.006Z,99178.97
2022-10-01T09:14:48.654Z,99169.94
2022-10-01T09:17:44.973Z,99169.63
2022-10-01T09:20:30.443Z,99164.59
2022-10-01T09:23:18.798Z,99161.16
2022-10-01T09:25:50.451Z,99154.88
2022-10-01T09:28:43.276Z,99154.91
2022-10-01T09:31:17.400Z,99154.97
2022-10-01T09:34:15.080Z,99142.16
2022-10-01T09:37:18.825Z,99143.00
2022-10-01T09:39:53.655Z,99136.59
2022-10-01T09:42:20.905Z,99123.56
2022-10-01T09:44:47.630Z,99122.28
2022-10-01T09:47:17.653Z,99116.72
2022-10-01T09:49:45.549Z,99119.88
2022-10-01T09:52:28.994Z,99109.06
2022-10-01T09:55:46.042Z,99100.69
2022-10-01T09:58:21.862Z,99098.63
2022-10-01T10:00:51.583Z,99089.69
2022-10-01T10:03:28.629Z,99092.59
2022-10-01T10:05:55.483Z,99104.06
2022-10-01T10:08:35.089Z,99100.13
2022-10-01T10:11:06.488Z,99087.00
2022-10-01T10:13:39.931Z,99083.88
2022-10-01T10:16:10.624Z,99079.28
2022-10-01T10:18:39.338Z,99076.16
2022-10-01T10:21:15.235Z,99075.31
2022-10-01T10:23:59.934Z,99081.38
2022-10-01T10:26:33.130Z,99082.00
2022-10-01T10:29:04.516Z,99089.25
2022-10-01T10:31:45.014Z,99079.84
2022-10-01T10:34:31.858Z,99083.50
2022-10-01T10:37:00.371Z,99082.19
2022-10-01T10:39:29.544Z,99077.91
2022-10-01T10:41:59.566Z,99072.78
2022-10-01T10:44:32.008Z,99078.97
2022-10-01T10:47:05.349Z,99085.91
2022-10-01T10:49:38.529Z,99092.41
2022-10-01T10:52:18.480Z,99094.19
2022-10-01T10:54:47.982Z,99092.59
2022-10-01T10:57:23.324Z,99084.09
2022-10-01T11:00:00.583Z,99081.84
2022-10-01T11:02:30.562Z,99083.88
2022-10-01T11:04:59.016Z,99072.34
2022-10-01T11:07:26.706Z,99056.66
2022-10-01T11:10:16.061Z,99068.66
2022-10-01T11:13:12.588Z,99066.91
2022-10-01T11:15:48.741Z,99060.19
2022-10-01T11:18:39.295Z,99054.81
2022-10-01T11:21:26.324Z,99043.94
2022-10-01T11:24:09.186Z,99048.06
2022-10-01T11:26:45.008Z,99041.34
2022-10-01T11:29:23.914Z,99036.81
2022-10-01T11:32:08.913Z,99050.19
2022-10-01T11:35:15.231Z,99046.19
2022-10-01T11:38:08.497Z,99046.50
2022-10-01T11:40:39.586Z,99048.25
2022-10-01T11:43:24.054Z,99046.78
2022-10-01T11:46:32.897Z,99044.19
2022-10-01T11:49:23.184Z,99052.38
2022-10-01T11:52:00.639Z,99059.03
2022-10-01T11:54:31.044Z,99053.47
2022-10-01T11:57:17.322Z,99055.31
2022-10-01T11:59:51.200Z,99046.88
2022-10-01T12:02:36.446Z,99050.13
2022-10-01T12:05:35.368Z,99044.09
2022-10-01T12:08:16.773Z,99037.69
2022-10-01T12:11:07.096Z,99033.94
2022-10-01T12:13:53.210Z,99023.56
2022-10-01T12:16:37.311Z,99016.50
2022-10-01T12:19:15.078Z,99024.00
2022-10-01T12:21:46.269Z,99027.03
2022-10-01T12:24:15.923Z,99015.16
2022-10-01T12:27:20.045Z,99014.94
2022-10-01T12:30:00.483Z,99012.66
2022-10-01T12:32:43.594Z,99003.44
2022-10-01T12:35:22.463Z,98996.69
2022-10-01T12:37:58.458Z,98997.31
2022-10-01T12:40:51.300Z,98995.72
2022-10-01T12:43:47.489Z,98995.72
2022-10-01T12:46:43.183Z,98997.94
2022-10-01T12:49:25.949Z,98992.69
2022-10-01T12:55:23.673Z,98989.72
2022-10-01T12:58:07.462Z,98982.38
2022-10-01T13:00:40.867Z,98986.47
2022-10-01T13:03:18.341Z,98982.81
2022-10-01T13:06:07.719Z,98985.13
2022-10-01T13:08:42.915Z,98989.34
2022-10-01T13:11:44.623Z,98984.06
2022-10-01T13:14:13.424Z,99001.44
2022-10-01T13:17:03.407Z,98989.81
2022-10-01T13:19:40.370Z,98979.09
2022-10-01T13:22:28.819Z,98992.16
2022-10-01T13:25:21.456Z,98992.41
2022-10-01T13:28:13.360Z,98984.63
2022-10-01T13:30:59.245Z,98991.88
2022-10-01T13:33:32.747Z,98999.56
2022-10-01T13:36:04.955Z,98997.63
2022-10-01T13:38:37.639Z,98994.28
2022-10-01T13:41:24.340Z,98974.75
2022-10-01T13:44:01.878Z,98980.63
2022-10-01T13:46:33.472Z,98968.81
2022-10-01T13:49:18.442Z,98965.75
2022-10-01T13:51:47.269Z,98974.47
2022-10-01T13:54:27.711Z,98967.03
2022-10-01T13:56:54.428Z,98964.78
2022-10-01T13:59:37.259Z,98959.78
2022-10-01T14:02:28.521Z,98963.75
2022-10-01T14:04:55.982Z,98954.84
2022-10-01T14:07:26.108Z,98960.22
2022-10-01T14:09:56.145Z,98963.47
2022-10-01T14:12:52.806Z,98966.16
2022-10-01T14:15:41.485Z,98963.38
2022-10-01T14:18:16.648Z,98957.38
2022-10-01T14:20:54.183Z,98958.03
2022-10-01T14:23:29.079Z,98952.91
2022-10-01T14:26:05.721Z,98948.81
2022-10-01T14:29:07.620Z,98948.50
2022-10-01T14:32:21.074Z,98954.00
2022-10-01T14:35:00.310Z,98957.16
2022-10-01T14:37:28.572Z,98959.97
2022-10-01T14:40:03.984Z,98958.69
2022-10-01T14:42:30.655Z,98951.69
2022-10-01T14:44:57.146Z,98955.50
2022-10-01T14:47:26.021Z,98956.56
2022-10-01T14:49:54.088Z,98953.25
2022-10-01T14:52:29.212Z,98948.25
2022-10-01T14:55:05.819Z,98955.63
2022-10-01T14:57:36.363Z,98955.81
2022-10-01T15:00:09.958Z,98957.09
2022-10-01T15:02:45.334Z,98960.72
2022-10-01T15:05:30.074Z,98959.41
2022-10-01T15:07:56.849Z,98969.28
2022-10-01T15:10:27.393Z,98964.28
2022-10-01T15:12:56.073Z,98977.00
2022-10-01T15:15:49.466Z,98986.78
2022-10-01T15:18:19.051Z,98970.19
2022-10-01T15:20:51.775Z,98969.00
2022-10-01T15:23:18.235Z,98978.81
2022-10-01T15:25:45.070Z,98983.53
2022-10-01T15:28:21.357Z,98995.81
2022-10-01T15:30:50.022Z,98998.94
2022-10-01T15:33:29.517Z,99006.31
2022-10-01T15:36:01.448Z,99001.84
2022-10-01T15:38:30.950Z,98993.34
2022-10-01T15:41:13.969Z,99012.31
2022-10-01T15:43:45.916Z,99004.78
2022-10-01T15:46:23.101Z,99006.44
2022-10-01T15:49:24.332Z,99012.25
2022-10-01T15:52:13.957Z,99015.94
2022-10-01T15:54:42.688Z,99010.41
2022-10-01T15:57:14.963Z,99014.13
2022-10-01T15:59:41.690Z,99017.47
2022-10-01T16:02:10.535Z,99012.66
2022-10-01T16:04:37.266Z,99016.78
2022-10-01T16:07:03.905Z,99014.91
2022-10-01T16:09:32.857Z,99009.00
2022-10-01T16:12:10.003Z,99010.59
2022-10-01T16:14:40.845Z,99023.81
2022-10-01T16:17:16.622Z,99020.31
2022-10-01T16:19:48.210Z,99024.22
2022-10-01T16:22:18.772Z,99033.25
2022-10-01T16:24:49.211Z,99029.91
2022-10-01T16:27:21.928Z,99026.91
2022-10-01T16:29:55.109Z,99032.03
2022-10-01T16:32:21.740Z,99026.97
2022-10-01T16:34:53.441Z,99033.34
2022-10-01T16:37:20.305Z,99032.69
2022-10-01T16:39:46.820Z,99037.44
2022-10-01T16:42:24.417Z,99032.59
2022-10-01T16:44:52.823Z,99023.81
2022-10-01T16:47:19.406Z,99028.75
2022-10-01T16:49:47.289Z,99032.94
2022-10-01T16:52:16.453Z,99039.38
2022-10-01T16:54:45.214Z,99034.94
2022-10-01T16:57:11.694Z,99052.78
2022-10-01T16:59:38.327Z,99044.97
2022-10-01T17:02:05.218Z,99050.53
2022-10-01T17:08:46.048Z,99057.16
2022-10-01T17:11:12.875Z,99056.78
2022-10-01T17:13:39.396Z,99069.94
2022-10-01T17:16:06.565Z,99077.66
2022-10-01T17:18:33.222Z,99077.09
2022-10-01T17:21:03.053Z,99082.88
2022-10-01T17:23:29.554Z,99090.16
2022-10-01T17:25:56.015Z,99088.09
2022-10-01T17:28:23.925Z,99090.78
2022-10-01T17:30:50.491Z,99094.16
2022-10-01T17:33:21.785Z,99085.53
2022-10-01T17:35:51.822Z,99087.13
2022-10-01T17:38:19.309Z,99084.28
2022-10-01T17:40:46.285Z,99096.84
2022-10-01T17:43:14.537Z,99093.31
2022-10-01T17:45:41.199Z,99088.38
2022-10-01T17:48:08.086Z,99102.81
2022-10-01T17:50:35.360Z,99096.75
2022-10-01T17:53:01.810Z,99099.50
2022-10-01T17:55:28.299Z,99117.00
2022-10-01T17:57:54.959Z,99123.59
2022-10-01T18:00:21.450Z,99112.97
2022-10-01T18:02:48.009Z,99113.22
2022-10-01T18:05:15.094Z,99123.41
2022-10-01T18:07:42.267Z,99122.59
2022-10-01T18:10:11.895Z,99129.41
2022-10-01T18:12:38.747Z,99129.41
2022-10-01T18:15:05.635Z,99144.81
2022-10-01T18:17:33.188Z,99136.84
2022-10-01T18:19:59.986Z,99143.06
2022-10-01T18:22:28.423Z,99142.69
2022-10-01T18:24:56.680Z,99137.66
2022-10-01T18:27:24.776Z,99144.28
2022-10-01T18:29:51.295Z,99147.38
2022-10-01T18:32:24.057Z,99143.06
2022-10-01T18:34:54.887Z,99140.56
2022-10-01T18:37:30.359Z,99138.81
2022-10-01T18:40:02.141Z,99146.28
2022-10-01T18:42:44.356Z,99144.28
2022-10-01T18:45:16.907Z,99149.38
2022-10-01T18:47:47.011Z,99146.03
2022-10-01T18:50:33.644Z,99139.28
2022-10-01T18:53:15.208Z,99142.56
2022-10-01T18:55:59.709Z,99154.56
2022-10-01T18:58:37.490Z,99151.88
2022-10-01T19:01:28.908Z,99165.66
2022-10-01T19:04:14.667Z,99162.41
2022-10-01T19:07:02.470Z,99155.81
2022-10-01T19:09:39.676Z,99163.50
2022-10-01T19:12:17.324Z,99169.50
2022-10-01T19:14:49.587Z,99167.88
2022-10-01T19:17:39.696Z,99167.22
2022-10-01T19:20:37.293Z,99169.56
2022-10-01T19:23:26.916Z,99174.13
2022-10-01T19:26:01.741Z,99177.47
2022-10-01T19:28:55.147Z,99182.50
2022-10-01T19:31:36.759Z,99178.88
2022-10-01T19:34:10.832Z,99180.47
2022-10-01T19:36:39.538Z,99183.94
2022-10-01T19:39:12.671Z,99187.56
2022-10-01T19:41:45.106Z,99184.94
2022-10-01T19:44:42.713Z,99196.78
2022-10-01T19:47:40.524Z,99194.47
2022-10-01T19:50:25.183Z,99199.88
2022-10-01T20:03:23.041Z,99217.09
2022-10-01T20:06:15.084Z,99230.47
2022-10-01T20:08:46.306Z,99230.28
2022-10-01T20:11:31.035Z,99234.47
2022-10-01T20:14:38.923Z,99251.16
2022-10-01T20:17:15.798Z,99252.34
2022-10-01T20:19:50.318Z,99253.28
2022-10-01T20:22:49.222Z,99261.53
2022-10-01T20:28:54.422Z,99277.53
2022-10-01T20:31:35.273Z,99280.31
2022-10-01T20:34:22.003Z,99280.84
2022-10-01T20:36:50.567Z,99289.78
2022-10-01T20:39:31.332Z,99289.59
2022-10-01T20:41:59.243Z,99292.41
2022-10-01T20:44:29.452Z,99295.94
2022-10-01T20:47:04.817Z,99300.31
2022-10-01T20:49:38.567Z,99312.44
2022-10-01T20:52:31.832Z,99314.47
2022-10-01T20:55:26.591Z,99315.66
2022-10-01T20:58:06.796Z,99322.97
2022-10-01T21:00:33.689Z,99318.97
2022-10-01T21:03:16.782Z,99326.69
2022-10-01T21:05:51.770Z,99329.31
2022-10-01T21:08:29.266Z,99338.09
2022-10-01T21:10:59.544Z,99337.25
2022-10-01T21:13:46.469Z,99341.47
2022-10-01T21:16:38.432Z,99348.06
2022-10-01T21:19:27.189Z,99357.19
2022-10-01T21:22:05.944Z,99361.22
2022-10-01T21:24:45.500Z,99360.75
2022-10-01T21:27:45.495Z,99371.34
2022-10-01T21:30:19.686Z,99368.16
2022-10-01T21:32:52.385Z,99375.03
2022-10-01T21:35:29.886Z,99378.59
2022-10-01T21:38:00.506Z,99385.50
2022-10-01T21:40:45.218Z,99386.88
2022-10-01T21:43:47.238Z,99402.59
2022-10-01T21:46:32.653Z,99402.28
2022-10-01T21:49:24.381Z,99401.09
2022-10-01T21:52:10.760Z,99404.31
2022-10-01T21:54:55.814Z,99414.31
2022-10-01T21:57:51.643Z,99420.19
2022-10-01T22:00:28.713Z,99422.72
2022-10-01T22:03:12.475Z,99425.22
2022-10-01T22:06:07.121Z,99429.97
2022-10-01T22:09:04.267Z,99428.31
2022-10-01T22:11:39.913Z,99432.03
2022-10-01T22:14:16.324Z,99442.97
2022-10-01T22:16:50.365Z,99445.81
2022-10-01T22:19:21.986Z,99445.34
2022-10-01T22:21:53.283Z,99453.13
2022-10-01T22:24:29.004Z,99447.09
2022-10-01T22:27:07.381Z,99466.47
2022-10-01T22:29:36.433Z,99461.25
2022-10-01T22:32:03.767Z,99474.72
2022-10-01T22:34:37.214Z,99476.09
2022-10-01T22:37:08.839Z,99479.28
2022-10-01T22:39:46.158Z,99488.56
2022-10-01T22:42:18.945Z,99486.38
2022-10-01T22:44:47.873Z,99491.16
2022-10-01T22:47:43.845Z,99493.34
2022-10-01T22:50:29.060Z,99504.47
2022-10-01T22:53:47.317Z,99500.41
2022-10-01T22:56:19.165Z,99504.97
2022-10-01T22:58:56.184Z,99509.50
2022-10-01T23:01:39.514Z,99516.91
2022-10-01T23:04:50.500Z,99514.22
2022-10-01T23:07:26.490Z,99518.47
2022-10-01T23:10:08.114Z,99518.81
2022-10-01T23:12:55.212Z,99513.91
2022-10-01T23:15:49.570Z,99519.97
2022-10-01T23:18:50.633Z,99522.84
2022-10-01T23:21:46.540Z,99530.09
2022-10-01T23:24:33.184Z,99535.47
2022-10-01T23:27:28.200Z,99541.03
2022-10-01T23:30:18.530Z,99541.03
2022-10-01T23:32:52.498Z,99541.03
2022-10-01T23:35:24.657Z,99549.09
2022-10-01T23:38:52.822Z,99551.31
2022-10-01T23:41:25.670Z,99552.84
2022-10-01T23:43:53.535Z,99554.19
2022-10-01T23:46:46.722Z,99556.53
2022-10-01T23:49:17.022Z,99562.25
2022-10-01T23:52:18.426Z,99569.84
2022-10-01T23:54:48.732Z,99574.53
2022-10-01T23:57:24.448Z,99581.44
